Lordsburg, NM

5:36 AM MDT on October 21, 2017 (GMT -0600)
Lordsburg

Weather History for KLSB - February, 2012

Change the Weather History Date:

Thursday, February 23, 2012

  Actual Average Record
Temperature  
Mean Temperature 53 °F -  
Max Temperature 71 °F 65 °F 69 °F (2014)
Min Temperature 35 °F 25 °F 23 °F (2013)
Degree Days  
Heating Degree Days 12    
Growing Degree Days 3 (Base 50)    
Moisture  
Dew Point 23 °F    
Average Humidity 37    
Maximum Humidity 70    
Minimum Humidity 13    
Precipitation  
Precipitation 0.00 in - - ()
Sea Level Pressure  
Sea Level Pressure 29.90 in    
Wind  
Wind Speed 8 mph ()    
Max Wind Speed 25 mph    
Max Gust Speed 33 mph    
Visibility 10.0 miles    
Events      
Averages and records for this station are not official NWS values.
T = Trace of Precipitation, MM = Missing Value Source: Averaged Metar Reports

Daily Weather History Graph

Daily Weather History Graph

Search for Another Location

Airport or City:

Trip Planner

Search our weather history database for the weather conditions in past years. The results will help you decide how hot, cold, wet, or windy it might be!

Date:

Astronomy

Feb. 23, 2012 Rise Set
Actual Time 6:51 AM MST 6:05 PM MST
Civil Twilight 6:26 AM MST 6:30 PM MST
Nautical Twilight 5:56 AM MST 6:59 PM MST
Astronomical Twilight 5:27 AM MST 7:29 PM MST
Moon 7:26 AM MST (2/23) 8:05 PM MST (2/23)
Length of Visible Light 12h 04m
Length of Day
11h 13m
Waxing Crescent, 3% of the Moon is Illuminated
Feb 23
Waxing Crescent
Feb 29
First Quarter
Mar 8
Full
Mar 14
Last Quarter
Mar 22
New

Hourly Weather History & Observations

Time (MST) Temp. Windchill Dew Point Humidity Pressure Visibility Wind Dir Wind Speed Gust Speed Precip Events Conditions
12:15 AM 41.0 °F 38.0 °F 24.8 °F 53% 29.97 in 10.0 mi WNW 4.6 mph - N/A   Clear
12:35 AM 41.0 °F 37.1 °F 26.6 °F 57% 29.97 in 10.0 mi West 5.8 mph - N/A   Clear
12:55 AM 42.8 °F 38.6 °F 26.6 °F 53% 29.95 in 10.0 mi West 6.9 mph - N/A   Clear
1:15 AM 46.4 °F 42.4 °F 24.8 °F 43% 29.95 in 10.0 mi WSW 8.1 mph - N/A   Clear
1:35 AM 44.6 °F 43.1 °F 24.8 °F 46% 29.95 in 10.0 mi North 3.5 mph - N/A   Clear
1:55 AM 39.2 °F 37.0 °F 28.4 °F 65% 29.95 in 10.0 mi North 3.5 mph - N/A   Clear
2:15 AM 39.2 °F 35.9 °F 28.4 °F 65% 29.95 in 10.0 mi North 4.6 mph - N/A   Clear
2:35 AM 37.4 °F - 28.4 °F 70% 29.95 in 10.0 mi Calm Calm - N/A   Clear
2:55 AM 37.4 °F - 26.6 °F 65% 29.94 in 10.0 mi Calm Calm - N/A   Clear
3:15 AM 41.0 °F - 26.6 °F 57% 29.94 in 10.0 mi Calm Calm - N/A   Clear
3:35 AM 37.4 °F 32.8 °F 26.6 °F 65% 29.93 in 10.0 mi WNW 5.8 mph - N/A   Clear
3:55 AM 37.4 °F 32.8 °F 26.6 °F 65% 29.93 in 10.0 mi WNW 5.8 mph - N/A   Clear
4:15 AM 39.2 °F - 26.6 °F 61% 29.92 in 10.0 mi Calm Calm - N/A   Clear
4:35 AM 37.4 °F 34.9 °F 26.6 °F 65% 29.92 in 10.0 mi NNE 3.5 mph - N/A   Clear
4:55 AM 39.2 °F - 26.6 °F 61% 29.92 in 10.0 mi Calm Calm - N/A   Clear
5:15 AM 39.2 °F - 24.8 °F 56% 29.92 in 10.0 mi Calm Calm - N/A   Clear
5:35 AM 41.0 °F 39.0 °F 23.0 °F 49% 29.93 in 10.0 mi NW 3.5 mph - N/A   Clear
5:55 AM 35.6 °F 29.9 °F 26.6 °F 70% 29.93 in 10.0 mi WNW 6.9 mph - N/A   Clear
6:15 AM 35.6 °F 30.7 °F 26.6 °F 70% 29.93 in 10.0 mi WNW 5.8 mph - N/A   Clear
6:35 AM 35.6 °F 28.6 °F 26.6 °F 70% 29.94 in 10.0 mi NW 9.2 mph - N/A   Clear
6:55 AM 37.4 °F 30.8 °F 26.6 °F 65% 29.93 in 10.0 mi West 9.2 mph - N/A   Clear
7:15 AM 41.0 °F 35.8 °F 24.8 °F 53% 29.93 in 10.0 mi West 8.1 mph - N/A   Clear
7:35 AM 42.8 °F 38.0 °F 26.6 °F 53% 29.93 in 10.0 mi NW 8.1 mph - N/A   Clear
7:55 AM 46.4 °F 42.4 °F 24.8 °F 43% 29.92 in 10.0 mi West 8.1 mph - N/A   Clear
8:15 AM 50.0 °F - 24.8 °F 37% 29.92 in 10.0 mi NW 6.9 mph - N/A   Clear
8:35 AM 51.8 °F - 24.8 °F 35% 29.93 in 10.0 mi NNW 4.6 mph - N/A   Clear
8:55 AM 51.8 °F - 26.6 °F 38% 29.93 in 10.0 mi Calm Calm - N/A   Clear
9:15 AM 53.6 °F - 26.6 °F 35% 29.93 in 10.0 mi North 4.6 mph - N/A   Clear
9:35 AM 55.4 °F - 26.6 °F 33% 29.93 in 10.0 mi NNW 5.8 mph - N/A   Clear
9:55 AM 55.4 °F - 26.6 °F 33% 29.93 in 10.0 mi NNW 9.2 mph - N/A   Clear
10:15 AM 59.0 °F - 24.8 °F 27% 29.94 in 10.0 mi NNW 11.5 mph - N/A   Clear
10:35 AM 59.0 °F - 26.6 °F 29% 29.93 in 10.0 mi NW 10.4 mph - N/A   Clear
10:55 AM 62.6 °F - 21.2 °F 20% 29.93 in 10.0 mi NW 16.1 mph - N/A   Clear
11:15 AM 64.4 °F - 19.4 °F 18% 29.92 in 10.0 mi WNW 15.0 mph 19.6 mph N/A   Clear
11:35 AM 64.4 °F - 19.4 °F 18% 29.91 in 10.0 mi NW 11.5 mph 21.9 mph N/A   Clear
11:55 AM 66.2 °F - 17.6 °F 15% 29.90 in 10.0 mi WNW 18.4 mph 21.9 mph N/A   Clear
12:15 PM 68.0 °F - 17.6 °F 15% 29.89 in 10.0 mi WNW 19.6 mph 25.3 mph N/A   Clear
12:35 PM 68.0 °F - 15.8 °F 13% 29.88 in 10.0 mi West 20.7 mph 26.5 mph N/A   Clear
12:55 PM 69.8 °F - 15.8 °F 13% 29.86 in 10.0 mi WNW 18.4 mph 26.5 mph N/A   Clear
1:15 PM 69.8 °F - 15.8 °F 13% 29.85 in 10.0 mi West 15.0 mph 29.9 mph N/A   Clear
1:35 PM 69.8 °F - 15.8 °F 13% 29.83 in 10.0 mi WNW 25.3 mph 29.9 mph N/A   Clear
1:55 PM 69.8 °F - 15.8 °F 13% 29.83 in 10.0 mi WNW 20.7 mph 28.8 mph N/A   Clear
2:15 PM 71.6 °F - 17.6 °F 13% 29.82 in 10.0 mi WNW 20.7 mph 26.5 mph N/A   Clear
2:35 PM 69.8 °F - 17.6 °F 14% 29.83 in 10.0 mi WNW 17.3 mph 33.4 mph N/A   Clear
2:55 PM 71.6 °F - 17.6 °F 13% 29.82 in 10.0 mi WNW 23.0 mph 33.4 mph N/A   Clear
3:15 PM 71.6 °F - 17.6 °F 13% 29.82 in 10.0 mi NW 23.0 mph 31.1 mph N/A   Clear
3:35 PM 71.6 °F - 17.6 °F 13% 29.82 in 10.0 mi West 19.6 mph 26.5 mph N/A   Clear
3:55 PM 69.8 °F - 17.6 °F 14% 29.81 in 10.0 mi West 23.0 mph 29.9 mph N/A   Clear
4:15 PM 69.8 °F - 17.6 °F 14% 29.82 in 10.0 mi NW 21.9 mph 26.5 mph N/A   Clear
4:35 PM 69.8 °F - 19.4 °F 15% 29.81 in 10.0 mi WNW 21.9 mph 28.8 mph N/A   Clear
4:55 PM 69.8 °F - 19.4 °F 15% 29.80 in 10.0 mi WNW 20.7 mph 25.3 mph N/A   Clear
5:15 PM 68.0 °F - 19.4 °F 16% 29.81 in 10.0 mi West 15.0 mph 25.3 mph N/A   Clear
5:35 PM 68.0 °F - 21.2 °F 17% 29.81 in 10.0 mi WNW 15.0 mph 20.7 mph N/A   Clear
5:55 PM 64.4 °F - 21.2 °F 19% 29.82 in 10.0 mi WNW 10.4 mph - N/A   Clear
6:15 PM 64.4 °F - 21.2 °F 19% 29.83 in 10.0 mi WNW 12.7 mph - N/A   Clear
6:35 PM 60.8 °F - 23.0 °F 23% 29.84 in 10.0 mi WNW 10.4 mph - N/A   Clear
6:55 PM 60.8 °F - 23.0 °F 23% 29.85 in 10.0 mi West 6.9 mph - N/A   Clear
7:15 PM 55.4 °F - 23.0 °F 29% 29.86 in 10.0 mi West 6.9 mph - N/A   Clear
7:35 PM 55.4 °F - 24.8 °F 31% 29.86 in 10.0 mi WNW 8.1 mph - N/A   Clear
7:55 PM 55.4 °F - 23.0 °F 29% 29.87 in 10.0 mi West 8.1 mph - N/A   Clear
8:15 PM 55.4 °F - 23.0 °F 29% 29.89 in 10.0 mi NW 5.8 mph - N/A   Clear
8:35 PM 53.6 °F - 23.0 °F 30% 29.89 in 10.0 mi WNW 6.9 mph - N/A   Clear
8:55 PM 53.6 °F - 23.0 °F 30% 29.89 in 10.0 mi West 6.9 mph - N/A   Clear
9:15 PM 50.0 °F - 26.6 °F 40% 29.91 in 10.0 mi NNE 5.8 mph - N/A   Clear
9:35 PM 51.8 °F - 24.8 °F 35% 29.92 in 10.0 mi North 3.5 mph - N/A   Clear
9:55 PM 50.0 °F - 26.6 °F 40% 29.93 in 10.0 mi NNE 4.6 mph - N/A   Clear
10:15 PM 50.0 °F - 26.6 °F 40% 29.93 in 10.0 mi Calm Calm - N/A   Clear
10:35 PM 46.4 °F 44.3 °F 26.6 °F 46% 29.94 in 10.0 mi West 4.6 mph - N/A   Clear
10:55 PM 44.6 °F 42.2 °F 28.4 °F 53% 29.95 in 10.0 mi WNW 4.6 mph - N/A   Clear
11:15 PM 46.4 °F 41.5 °F 28.4 °F 50% 29.95 in 10.0 mi NW 10.4 mph - N/A   Clear
11:35 PM 50.0 °F - 28.4 °F 43% 29.96 in 10.0 mi SSE 4.6 mph - N/A   Clear
11:55 PM 46.4 °F 44.3 °F 26.6 °F 46% 29.97 in 10.0 mi South 4.6 mph - N/A   Clear